createdAt,value
2023-04-26T00:06:11.676Z,4.01
2023-04-26T00:26:11.766Z,3.89
2023-04-26T01:06:11.859Z,3.94
2023-04-26T01:26:11.870Z,4.23
2023-04-26T01:46:11.826Z,4.38
2023-04-26T02:06:11.866Z,4.14
2023-04-26T02:26:11.919Z,3.65
2023-04-26T02:46:11.974Z,3.08
2023-04-26T03:06:12.092Z,2.51
2023-04-26T03:46:12.222Z,1.79
2023-04-26T04:06:12.181Z,1.6
2023-04-26T04:26:12.391Z,1.48
2023-04-26T04:46:12.758Z,1.53
2023-04-26T05:06:12.328Z,1.87
2023-04-26T05:26:12.352Z,2.26
2023-04-26T05:46:12.426Z,2.76
2023-04-26T06:06:12.392Z,3.45
2023-04-26T06:26:12.535Z,4.05
2023-04-26T06:46:12.572Z,4.67
2023-04-26T07:06:12.716Z,5.2
2023-04-26T07:26:12.752Z,5.83
2023-04-26T07:46:12.808Z,7.19
2023-04-26T08:06:12.954Z,7.49
2023-04-26T08:26:12.782Z,7.86
2023-04-26T08:46:12.806Z,8.36
2023-04-26T09:06:12.807Z,8.23
2023-04-26T09:26:12.816Z,9.19
2023-04-26T09:46:12.937Z,8.84
2023-04-26T10:06:13.494Z,8.99
2023-04-26T10:26:13.237Z,9.93
2023-04-26T10:46:13.810Z,10.2
2023-04-26T11:06:13.112Z,9.75
2023-04-26T11:26:13.016Z,11.31
2023-04-26T11:46:13.201Z,10.95
2023-04-26T12:06:13.176Z,11.12
2023-04-26T12:26:14.196Z,12.17
2023-04-26T12:46:13.242Z,12.4
2023-04-26T13:06:13.431Z,13.99
2023-04-26T13:26:13.872Z,15.8
2023-04-26T13:46:13.489Z,15.74
2023-04-26T14:06:13.585Z,15.17
2023-04-26T14:26:13.456Z,14.1
2023-04-26T14:46:13.676Z,13.51
2023-04-26T15:06:13.803Z,14.15
2023-04-26T15:26:13.590Z,13.57
2023-04-26T15:46:13.840Z,12.87
2023-04-26T16:06:14.491Z,12.3
2023-04-26T16:26:13.591Z,12.06
2023-04-26T16:46:13.862Z,11.38
2023-04-26T17:06:14.198Z,11.07
2023-04-26T17:26:13.905Z,10.73
2023-04-26T17:46:13.908Z,10.06
2023-04-26T18:06:15.153Z,9.63
2023-04-26T18:26:14.026Z,9.11
2023-04-26T18:46:14.520Z,8.54
2023-04-26T19:26:14.159Z,7.55
2023-04-26T19:46:14.119Z,7.04
2023-04-26T20:06:13.958Z,6.6
2023-04-26T20:26:13.969Z,6.2
2023-04-26T20:46:14.127Z,6.16
2023-04-26T21:06:14.129Z,6.36
2023-04-26T21:26:14.255Z,6.23
2023-04-26T21:46:14.205Z,6.17
2023-04-26T22:46:14.515Z,6.17
2023-04-26T23:06:14.342Z,5.96
2023-04-26T23:26:14.527Z,5.77
2023-04-26T23:46:14.539Z,5.69
